Terminal Aerodrome Forecast
Issued by NWS

Home | Current Version | Previous Version | Text Only | Print | Product List | Glossary On
Versions: 1 2 3 4 5 6 7 8 9 10 11 12 13 14 15 16 17 18 19 20 21 22 23 24 25 26
096
FTUS44 KFWD 221740
TAFDAL
TAF
KDAL 221740Z 2218/2318 03010KT P6SM SCT025 BKN040
      TEMPO 2218/2221 BKN025
     FM230000 07009KT P6SM SCT040 SCT250
     FM230400 13008KT P6SM FEW040 FEW250=

USA.gov is the U.S. government's official web portal to all federal, state and local government web resources and services.